Time;durP1;ratioP1;P1;durP2;ratioP2;P2;SDS_P1;SDS_P2;PMS_P1;PMS_P2;Temp;Humidity;BMP_temperature;BMP_pressure;BME280_temperature;BME280_humidity;BME280_pressure;Samples;Min_cycle;Max_cycle;Signal;HPM_P1;HPM_P2
2024/04/10 00:00:57;;;;;;;11.48;1.33;;;10.50;99.90;;;;;;5518939;26;20016;-73
2024/04/10 00:03:23;;;;;;;12.52;1.85;;;10.40;99.90;;;;;;5489252;26;20062;-77
2024/04/10 00:06:03;;;;;;;4.33;1.00;;;10.50;99.90;;;;;;5458472;26;19995;-75
2024/04/10 00:08:30;;;;;;;11.25;1.70;;;10.50;99.90;;;;;;5456907;26;20220;-76
2024/04/10 00:10:56;;;;;;;9.07;1.48;;;10.50;99.90;;;;;;5487942;26;20006;-77
2024/04/10 00:13:22;;;;;;;9.15;1.65;;;10.40;99.90;;;;;;5456745;26;20016;-74
2024/04/10 00:16:08;;;;;;;11.83;1.83;;;10.60;99.90;;;;;;5457838;26;19994;-77
2024/04/10 00:18:35;;;;;;;6.53;2.10;;;10.20;99.90;;;;;;5488707;26;19990;-72
2024/04/10 00:21:02;;;;;;;8.55;1.60;;;10.50;99.90;;;;;;5489921;26;20010;-76
2024/04/10 00:23:28;;;;;;;7.90;1.50;;;10.50;99.90;;;;;;5426410;26;20436;-73
2024/04/10 00:26:02;;;;;;;13.40;1.70;;;10.50;99.90;;;;;;5489390;26;20005;-76
2024/04/10 00:28:29;;;;;;;9.23;1.60;;;10.40;99.90;;;;;;5505087;26;19990;-77
2024/04/10 00:30:54;;;;;;;;;;;10.40;99.90;;;;;;5501300;26;20321;-74
2024/04/10 00:33:21;;;;;;;17.35;2.90;;;10.50;99.90;;;;;;5456997;26;19924;-78
2024/04/10 00:36:00;;;;;;;9.13;1.57;;;10.50;99.90;;;;;;5523972;26;20315;-77
2024/04/10 00:38:27;;;;;;;12.88;2.05;;;10.80;99.90;;;;;;5492448;26;20222;-75
2024/04/10 00:41:04;;;;;;;13.80;2.03;;;10.70;99.90;;;;;;5493220;26;20439;-74
2024/04/10 00:43:30;;;;;;;12.07;1.87;;;10.30;99.90;;;;;;5486784;26;20300;-72
2024/04/10 00:46:09;;;;;;;6.67;1.33;;;10.10;99.90;;;;;;5490719;26;20067;-70
2024/04/10 00:48:39;;;;;;;11.85;1.80;;;10.20;99.90;;;;;;5470611;26;20258;-76
2024/04/10 00:51:11;;;;;;;9.43;1.67;;;10.20;99.90;;;;;;5525973;26;19989;-75
2024/04/10 00:53:37;;;;;;;11.90;2.30;;;10.20;99.90;;;;;;5492110;26;20512;-70
2024/04/10 00:56:04;;;;;;;11.68;2.15;;;10.00;99.90;;;;;;5492994;26;19994;-76
2024/04/10 00:58:34;;;;;;;7.60;1.60;;;10.10;99.90;;;;;;5461886;26;19993;-77
2024/04/10 01:01:03;;;;;;;13.77;2.25;;;10.20;99.90;;;;;;5525771;26;19997;-74
2024/04/10 01:03:33;;;;;;;7.50;1.48;;;10.10;99.90;;;;;;5524726;26;20029;-76
2024/04/10 01:06:09;;;;;;;10.68;2.30;;;10.40;99.90;;;;;;5462644;26;20005;-75
2024/04/10 01:08:37;;;;;;;7.90;1.67;;;10.20;99.90;;;;;;5524335;26;20058;-74
2024/04/10 01:11:05;;;;;;;9.23;1.60;;;10.20;99.90;;;;;;5492563;26;20003;-77
2024/04/10 01:13:32;;;;;;;12.68;2.08;;;10.50;99.90;;;;;;5492257;26;20421;-73
2024/04/10 01:15:58;;;;;;;;;;;10.40;99.90;;;;;;5493090;26;20005;-74
2024/04/10 01:18:24;;;;;;;9.95;1.50;;;10.60;99.90;;;;;;5524495;26;19983;-77
2024/04/10 01:20:49;;;;;;;12.67;1.90;;;10.20;99.90;;;;;;5554813;25;20021;-73
2024/04/10 01:23:19;;;;;;;17.43;1.70;;;10.30;99.90;;;;;;5525070;26;20380;-73
2024/04/10 01:25:45;;;;;;;14.95;2.20;;;10.50;99.90;;;;;;5525440;26;19986;-74
2024/04/10 01:28:10;;;;;;;12.20;1.70;;;10.30;99.90;;;;;;5554670;25;20004;-77
2024/04/10 01:30:36;;;;;;;12.70;1.93;;;10.20;99.90;;;;;;5524603;26;19997;-72
2024/04/10 01:33:02;;;;;;;6.83;1.40;;;10.10;99.90;;;;;;5525537;26;19993;-77
2024/04/10 01:35:28;;;;;;;11.33;2.97;;;10.30;99.90;;;;;;5523775;26;20004;-77
2024/04/10 01:37:54;;;;;;;12.40;1.60;;;10.10;99.90;;;;;;5554581;25;20002;-75
2024/04/10 01:40:22;;;;;;;11.23;1.73;;;10.00;99.90;;;;;;5492976;26;20009;-77
2024/04/10 01:42:48;;;;;;;11.05;1.88;;;10.00;99.90;;;;;;5526139;26;20001;-75
2024/04/10 01:45:14;;;;;;;12.10;2.10;;;10.10;99.90;;;;;;5494509;26;20001;-74
2024/04/10 01:47:40;;;;;;;10.98;1.90;;;10.00;99.90;;;;;;5528399;26;20005;-74
2024/04/10 01:50:06;;;;;;;11.07;1.70;;;10.40;99.90;;;;;;5527452;26;19993;-75
2024/04/10 01:52:33;;;;;;;16.53;2.00;;;10.30;99.90;;;;;;5527022;26;19998;-75
2024/04/10 01:54:59;;;;;;;16.40;2.10;;;10.20;99.90;;;;;;5494827;26;20034;-73
2024/04/10 01:57:25;;;;;;;14.57;2.00;;;10.00;99.90;;;;;;5525429;26;20009;-73
2024/04/10 01:59:51;;;;;;;8.73;1.70;;;9.90;99.90;;;;;;5525005;26;19993;-76
2024/04/10 02:02:17;;;;;;;16.40;2.23;;;10.00;99.90;;;;;;5492126;26;20026;-78
2024/04/10 02:04:43;;;;;;;6.10;1.00;;;10.10;99.90;;;;;;5523882;26;19993;-76
2024/04/10 02:07:08;;;;;;;14.83;2.10;;;10.10;99.90;;;;;;5493743;26;19996;-73
2024/04/10 02:09:35;;;;;;;15.50;1.93;;;10.00;99.90;;;;;;5527112;26;20005;-78
2024/04/10 02:12:02;;;;;;;11.77;2.17;;;10.10;99.90;;;;;;5528159;26;19993;-73
2024/04/10 02:14:32;;;;;;;14.25;1.80;;;9.90;99.90;;;;;;5494737;26;20029;-73
2024/04/10 02:16:58;;;;;;;15.85;2.50;;;10.20;99.90;;;;;;5527723;26;19997;-76
2024/04/10 02:19:24;;;;;;;12.10;1.88;;;10.00;99.90;;;;;;5527282;26;20001;-77
2024/04/10 02:21:52;;;;;;;9.77;2.20;;;9.80;99.90;;;;;;5495886;26;20061;-76
2024/04/10 02:24:19;;;;;;;16.83;2.45;;;10.10;99.90;;;;;;5527731;26;20001;-78
2024/04/10 02:26:44;;;;;;;10.68;2.83;;;10.00;99.90;;;;;;5527671;26;19993;-77
2024/04/10 02:29:10;;;;;;;12.73;2.07;;;10.00;99.90;;;;;;5526200;26;19989;-73
2024/04/10 02:31:36;;;;;;;11.03;1.40;;;10.80;99.90;;;;;;5526341;26;20012;-77
2024/04/10 02:34:02;;;;;;;19.70;2.72;;;9.90;99.90;;;;;;5494810;26;19985;-74
2024/04/10 02:36:28;;;;;;;10.57;2.00;;;10.00;99.90;;;;;;5493627;26;20038;-74
2024/04/10 02:38:54;;;;;;;17.80;2.83;;;10.00;99.90;;;;;;5527672;26;20363;-76
2024/04/10 02:41:20;;;;;;;14.53;2.13;;;10.20;99.90;;;;;;5464091;26;19997;-81
2024/04/10 02:43:49;;;;;;;14.47;2.33;;;10.40;99.90;;;;;;5494733;26;19992;-74
2024/04/10 02:46:17;;;;;;;10.55;1.88;;;10.30;99.90;;;;;;5495116;26;20426;-77
2024/04/10 02:48:44;;;;;;;14.23;2.22;;;10.10;99.90;;;;;;5494067;26;20415;-75
2024/04/10 02:51:10;;;;;;;15.05;2.20;;;10.20;99.90;;;;;;5494843;26;20315;-78
2024/04/10 02:53:36;;;;;;;8.40;1.73;;;9.90;99.90;;;;;;5493927;26;20405;-74
2024/04/10 02:56:02;;;;;;;16.90;2.20;;;10.00;99.90;;;;;;5494756;26;20001;-77
2024/04/10 02:58:27;;;;;;;11.60;2.53;;;10.20;99.90;;;;;;5494064;26;20453;-76
2024/04/10 03:00:54;;;;;;;10.50;2.00;;;10.10;99.90;;;;;;5527388;26;20013;-77
2024/04/10 03:03:20;;;;;;;;;;;10.00;99.90;;;;;;5525460;26;20061;-76
2024/04/10 03:05:58;;;;;;;10.68;2.10;;;9.90;99.90;;;;;;5502870;26;19924;-76
2024/04/10 03:08:23;;;;;;;13.88;1.70;;;10.00;99.90;;;;;;5503469;26;20003;-77
2024/04/10 03:10:49;;;;;;;12.97;2.07;;;10.20;99.90;;;;;;5507423;26;19989;-76
2024/04/10 03:13:15;;;;;;;9.53;1.87;;;10.00;99.90;;;;;;5494985;26;19993;-73
2024/04/10 03:15:44;;;;;;;12.30;2.20;;;10.10;99.90;;;;;;5526872;26;20492;-77
2024/04/10 03:18:10;;;;;;;15.90;2.65;;;10.10;99.90;;;;;;5462381;26;20446;-76
2024/04/10 03:20:36;;;;;;;10.63;1.87;;;10.00;99.90;;;;;;5493190;26;20001;-76
2024/04/10 03:23:03;;;;;;;10.55;2.00;;;10.10;99.90;;;;;;5526540;26;20071;-77
2024/04/10 03:25:29;;;;;;;12.60;2.10;;;10.00;99.90;;;;;;5525276;26;19994;-74
2024/04/10 03:27:55;;;;;;;15.63;2.55;;;9.90;99.90;;;;;;5526432;26;20473;-76
2024/04/10 03:30:21;;;;;;;14.90;1.95;;;9.50;99.90;;;;;;5493537;26;19997;-77
2024/04/10 03:32:47;;;;;;;10.67;2.07;;;9.80;99.90;;;;;;5493343;26;19993;-77
2024/04/10 03:35:13;;;;;;;9.47;1.70;;;9.90;99.90;;;;;;5526746;26;20455;-77
2024/04/10 03:37:38;;;;;;;11.63;2.37;;;10.10;99.90;;;;;;5465091;26;19995;-75
2024/04/10 03:40:06;;;;;;;15.00;2.07;;;10.50;99.90;;;;;;5451902;26;20059;-75
2024/04/10 03:42:34;;;;;;;13.63;2.25;;;10.00;99.90;;;;;;5452555;26;20470;-77
2024/04/10 03:45:00;;;;;;;15.23;2.08;;;9.90;99.90;;;;;;5421643;26;19987;-74
2024/04/10 03:47:26;;;;;;;14.63;2.20;;;10.00;99.90;;;;;;5452083;26;19995;-75
2024/04/10 03:49:53;;;;;;;12.88;2.10;;;10.10;99.90;;;;;;5451831;26;20002;-77
2024/04/10 03:52:18;;;;;;;16.98;2.35;;;9.80;99.90;;;;;;5452692;26;20015;-79
2024/04/10 03:54:44;;;;;;;8.63;1.70;;;10.10;99.90;;;;;;5452835;26;20612;-73
2024/04/10 03:57:10;;;;;;;11.93;2.50;;;10.20;99.90;;;;;;5451650;26;20005;-74
2024/04/10 03:59:37;;;;;;;8.80;2.10;;;9.80;99.90;;;;;;5452379;26;19999;-74
2024/04/10 04:02:03;;;;;;;7.37;1.43;;;9.90;99.90;;;;;;5453676;26;19991;-75
2024/04/10 04:04:29;;;;;;;13.47;2.37;;;10.00;99.90;;;;;;5452341;26;20067;-75
2024/04/10 04:06:55;;;;;;;17.13;2.30;;;9.80;99.90;;;;;;5452768;26;20443;-74
2024/04/10 04:09:22;;;;;;;13.80;2.10;;;9.70;99.90;;;;;;5453921;26;20360;-77
2024/04/10 04:11:48;;;;;;;;;;;10.00;99.90;;;;;;5453204;26;20009;-77
2024/04/10 04:14:14;;;;;;;11.50;2.22;;;9.60;99.90;;;;;;5452893;26;20258;-76
2024/04/10 04:16:39;;;;;;;7.93;2.10;;;9.80;99.90;;;;;;5451696;26;20447;-77
2024/04/10 04:19:05;;;;;;;10.53;1.80;;;9.90;99.90;;;;;;5451543;26;19995;-75
2024/04/10 04:21:31;;;;;;;12.23;2.27;;;9.60;99.90;;;;;;5450303;26;19995;-76
2024/04/10 04:23:58;;;;;;;12.53;1.87;;;9.80;99.90;;;;;;5421105;26;20009;-76
2024/04/10 04:26:24;;;;;;;;;;;9.60;99.90;;;;;;5451489;26;20432;-79
2024/04/10 04:28:51;;;;;;;9.80;1.83;;;9.60;99.90;;;;;;5451620;26;19931;-75
2024/04/10 04:31:17;;;;;;;11.13;1.98;;;9.80;99.90;;;;;;5452430;26;20480;-76
2024/04/10 04:33:43;;;;;;;12.33;1.90;;;9.10;99.90;;;;;;5451324;26;19999;-75
2024/04/10 04:36:10;;;;;;;10.00;2.60;;;9.80;99.90;;;;;;5450932;26;20002;-73
2024/04/10 04:38:37;;;;;;;13.30;2.17;;;9.90;99.90;;;;;;5449443;26;19999;-74
2024/04/10 04:41:03;;;;;;;8.23;2.13;;;10.00;99.90;;;;;;5452578;26;20067;-74
2024/04/10 04:43:29;;;;;;;9.80;1.83;;;9.80;99.90;;;;;;5451427;26;19995;-77
2024/04/10 04:45:55;;;;;;;13.37;2.07;;;9.70;99.90;;;;;;5450784;26;20018;-77
2024/04/10 04:48:21;;;;;;;12.43;2.00;;;9.70;99.90;;;;;;5420708;26;20020;-74
2024/04/10 04:50:48;;;;;;;14.80;2.03;;;9.70;99.90;;;;;;5449395;26;20662;-75
2024/04/10 04:53:14;;;;;;;10.93;2.30;;;10.10;99.90;;;;;;5451292;26;20071;-74
2024/04/10 04:55:43;;;;;;;15.57;3.15;;;9.50;99.90;;;;;;5450429;26;19999;-74
2024/04/10 04:58:10;;;;;;;11.38;2.63;;;9.40;99.90;;;;;;5451067;26;20019;-76
2024/04/10 05:00:37;;;;;;;18.35;2.30;;;9.50;99.90;;;;;;5449425;26;20045;-73
2024/04/10 05:03:03;;;;;;;9.60;1.90;;;9.80;99.90;;;;;;5450981;26;19995;-73
2024/04/10 05:05:33;;;;;;;;;;;9.50;99.90;;;;;;5451002;26;20562;-77
2024/04/10 05:07:59;;;;;;;9.35;2.22;;;9.60;99.90;;;;;;5443010;26;19925;-75
2024/04/10 05:10:25;;;;;;;10.88;2.25;;;9.80;99.90;;;;;;5413754;26;19992;-77
2024/04/10 05:12:51;;;;;;;12.52;2.08;;;9.40;99.90;;;;;;5412681;26;20007;-74
2024/04/10 05:15:16;;;;;;;14.10;2.40;;;9.40;99.90;;;;;;5413530;26;20455;-78
2024/04/10 05:17:45;;;;;;;14.77;3.33;;;9.40;99.90;;;;;;5382213;26;20337;-76
2024/04/10 05:20:15;;;;;;;13.68;2.72;;;9.40;99.90;;;;;;5414642;26;20072;-76
2024/04/10 05:22:42;;;;;;;13.43;2.00;;;9.50;99.90;;;;;;5412147;26;20002;-75
2024/04/10 05:25:09;;;;;;;13.75;2.67;;;9.20;99.90;;;;;;5414394;26;20003;-79
2024/04/10 05:27:37;;;;;;;;;;;9.40;99.90;;;;;;5413961;26;20003;-71
2024/04/10 05:30:08;;;;;;;21.55;2.28;;;9.00;99.90;;;;;;5441928;26;19933;-74
2024/04/10 05:32:37;;;;;;;12.65;2.08;;;9.50;99.90;;;;;;5416663;26;19992;-72
2024/04/10 05:35:09;;;;;;;14.02;2.30;;;9.00;99.90;;;;;;5449602;26;20019;-75
2024/04/10 05:37:35;;;;;;;13.30;2.30;;;9.40;99.90;;;;;;5490450;26;20034;-79
2024/04/10 05:40:10;;;;;;;13.80;2.58;;;9.40;99.90;;;;;;5490589;26;20299;-76
2024/04/10 05:42:37;;;;;;;15.68;2.40;;;9.30;99.90;;;;;;5515419;26;20001;-77
2024/04/10 05:45:08;;;;;;;8.48;2.20;;;9.50;99.90;;;;;;5522705;26;20074;-76
2024/04/10 05:47:36;;;;;;;10.48;2.20;;;9.20;99.90;;;;;;5522598;26;20335;-77
2024/04/10 05:50:02;;;;;;;15.98;3.25;;;9.30;99.90;;;;;;5522709;26;20001;-81
2024/04/10 05:52:27;;;;;;;12.97;2.30;;;9.60;99.90;;;;;;5523093;26;20415;-74
2024/04/10 05:54:54;;;;;;;10.67;2.27;;;9.40;99.90;;;;;;5489900;26;20001;-76
2024/04/10 05:57:26;;;;;;;6.45;1.95;;;9.80;99.90;;;;;;5522925;26;20439;-73
2024/04/10 05:59:56;;;;;;;9.27;2.42;;;9.60;99.90;;;;;;5521734;26;20454;-73
2024/04/10 06:02:23;;;;;;;7.82;2.50;;;9.70;99.90;;;;;;5522505;26;20001;-78
2024/04/10 06:04:52;;;;;;;10.18;1.98;;;9.40;99.90;;;;;;5522482;26;20062;-81
2024/04/10 06:07:18;;;;;;;12.75;2.13;;;9.50;99.90;;;;;;5523185;26;19993;-71
2024/04/10 06:09:44;;;;;;;9.93;2.30;;;9.70;99.90;;;;;;5521729;26;20457;-72
2024/04/10 06:12:10;;;;;;;13.18;2.60;;;9.70;99.90;;;;;;5490378;26;20012;-75
2024/04/10 06:14:36;;;;;;;8.27;1.70;;;9.50;99.90;;;;;;5522348;26;19989;-71
2024/04/10 06:17:02;;;;;;;15.35;2.67;;;9.50;99.90;;;;;;5490672;26;19997;-73
2024/04/10 06:19:28;;;;;;;11.83;1.90;;;9.20;99.90;;;;;;5522752;26;20069;-75
2024/04/10 06:21:54;;;;;;;11.70;1.87;;;9.70;99.90;;;;;;5520711;25;19998;-74
2024/04/10 06:24:22;;;;;;;14.70;2.50;;;9.60;99.90;;;;;;5486750;26;20001;-74
2024/04/10 06:26:47;;;;;;;8.82;1.88;;;9.40;99.90;;;;;;5513413;26;20358;-72
2024/04/10 06:29:13;;;;;;;11.37;2.77;;;9.50;99.90;;;;;;5503329;26;19993;-71
2024/04/10 06:31:40;;;;;;;8.93;2.73;;;9.60;99.90;;;;;;5522665;26;20001;-75
2024/04/10 06:34:06;;;;;;;8.80;2.10;;;9.70;99.90;;;;;;5522856;26;19990;-80
2024/04/10 06:36:33;;;;;;;14.60;2.58;;;9.70;99.90;;;;;;5488963;26;20004;-73
2024/04/10 06:38:58;;;;;;;10.20;2.05;;;9.70;99.90;;;;;;5522691;26;20008;-79
2024/04/10 06:41:25;;;;;;;11.67;2.17;;;9.90;99.90;;;;;;5490565;26;20069;-79
2024/04/10 06:43:53;;;;;;;8.40;1.98;;;10.10;99.90;;;;;;5489698;26;19997;-75
2024/04/10 06:46:19;;;;;;;13.52;2.75;;;9.70;99.90;;;;;;5490195;26;19994;-77
2024/04/10 06:48:45;;;;;;;14.30;2.60;;;10.00;99.90;;;;;;5489677;26;20338;-74
2024/04/10 06:51:11;;;;;;;9.63;2.43;;;9.90;99.90;;;;;;5549255;25;20444;-67
2024/04/10 06:53:37;;;;;;;12.47;2.60;;;9.90;99.90;;;;;;5490733;26;20009;-78
2024/04/10 06:56:05;;;;;;;10.27;2.17;;;9.60;99.90;;;;;;5462596;26;20005;-74
2024/04/10 06:58:36;;;;;;;13.70;2.60;;;9.90;99.90;;;;;;5514612;26;19997;-80
2024/04/10 07:01:09;;;;;;;6.93;2.45;;;9.70;99.90;;;;;;5523821;26;20506;-83
2024/04/10 07:03:40;;;;;;;14.77;2.33;;;9.90;99.90;;;;;;5525000;26;19993;-76
2024/04/10 07:06:14;;;;;;;11.32;2.35;;;9.90;99.90;;;;;;5493787;26;19998;-71
2024/04/10 07:08:48;;;;;;;13.80;2.40;;;9.80;99.90;;;;;;5526190;26;20005;-79
2024/04/10 07:11:16;;;;;;;13.23;4.65;;;9.80;99.90;;;;;;5495515;26;20338;-74
2024/04/10 07:13:48;;;;;;;10.63;2.28;;;9.80;99.90;;;;;;5528524;26;19994;-76
2024/04/10 07:16:14;;;;;;;15.13;2.83;;;9.90;99.90;;;;;;5495344;26;19997;-79
2024/04/10 07:18:40;;;;;;;10.50;2.40;;;10.20;99.90;;;;;;5492208;26;20338;-80
2024/04/10 07:21:08;;;;;;;10.33;2.67;;;10.00;99.90;;;;;;5493732;26;19989;-77
2024/04/10 07:23:37;;;;;;;12.90;2.47;;;10.00;99.90;;;;;;5492625;26;20001;-73
2024/04/10 07:26:17;;;;;;;12.10;2.40;;;10.20;99.90;;;;;;5526282;26;20002;-74
2024/04/10 07:28:44;;;;;;;11.75;2.55;;;10.20;99.90;;;;;;5524800;26;20021;-76
2024/04/10 07:31:11;;;;;;;13.23;3.08;;;10.30;99.90;;;;;;5492593;26;19994;-75
2024/04/10 07:33:40;;;;;;;11.45;2.33;;;10.40;99.90;;;;;;5524165;26;20336;-74
2024/04/10 07:36:12;;;;;;;11.40;2.63;;;10.20;99.90;;;;;;5523947;26;20491;-78
2024/04/10 07:38:40;;;;;;;13.70;2.67;;;10.60;99.90;;;;;;5433973;26;19996;-79
2024/04/10 07:41:06;;;;;;;14.25;2.83;;;10.60;99.90;;;;;;5415444;26;20000;-76
2024/04/10 07:43:34;;;;;;;16.33;2.75;;;10.70;99.90;;;;;;5416250;26;20489;-75
2024/04/10 07:46:13;;;;;;;14.50;2.83;;;11.00;99.90;;;;;;5415618;26;20000;-74
2024/04/10 07:48:40;;;;;;;12.23;2.50;;;10.70;99.90;;;;;;5415557;26;20041;-78
2024/04/10 07:51:08;;;;;;;8.40;3.05;;;10.80;99.90;;;;;;5414445;26;20031;-77
2024/04/10 07:53:38;;;;;;;11.95;1.88;;;10.80;99.90;;;;;;5414874;26;20027;-76
2024/04/10 07:56:04;;;;;;;10.23;2.28;;;11.00;99.90;;;;;;5412948;26;20084;-76
2024/04/10 07:58:31;;;;;;;14.23;3.33;;;10.90;99.90;;;;;;5413560;26;19987;-79
2024/04/10 08:00:58;;;;;;;12.30;2.80;;;10.90;99.90;;;;;;5415262;26;19999;-77
2024/04/10 08:03:25;;;;;;;7.80;2.45;;;10.80;99.90;;;;;;5414005;26;20040;-75
2024/04/10 08:05:55;;;;;;;11.13;2.72;;;10.70;99.90;;;;;;5413671;26;19999;-77
2024/04/10 08:08:21;;;;;;;12.65;3.67;;;10.70;99.90;;;;;;5414707;26;20006;-77
2024/04/10 08:10:54;;;;;;;10.23;2.65;;;10.70;99.90;;;;;;5414709;26;20000;-78
2024/04/10 08:13:20;;;;;;;14.60;2.85;;;10.70;99.90;;;;;;5415535;26;19991;-75
2024/04/10 08:16:04;;;;;;;13.30;2.97;;;11.00;99.90;;;;;;5414531;26;20451;-77
2024/04/10 08:18:32;;;;;;;13.25;2.92;;;10.80;99.90;;;;;;5413883;26;19991;-74
2024/04/10 08:21:06;;;;;;;13.57;2.20;;;11.10;99.90;;;;;;5414397;26;19996;-79
2024/04/10 08:23:33;;;;;;;13.07;3.50;;;11.10;99.90;;;;;;5413427;26;19995;-78
2024/04/10 08:25:59;;;;;;;12.20;2.65;;;11.10;99.90;;;;;;5432803;26;20005;-75
2024/04/10 08:28:26;;;;;;;11.95;2.92;;;11.20;99.90;;;;;;5444072;26;20459;-75
2024/04/10 08:30:54;;;;;;;13.38;3.13;;;11.10;99.90;;;;;;5450046;26;20443;-76
2024/04/10 08:33:20;;;;;;;10.43;2.83;;;11.40;99.90;;;;;;5419044;26;19991;-80
2024/04/10 08:35:57;;;;;;;10.95;3.10;;;11.20;99.90;;;;;;5450316;26;19995;-76
2024/04/10 08:38:23;;;;;;;9.48;3.15;;;11.30;99.90;;;;;;5419287;26;19990;-77
2024/04/10 08:40:53;;;;;;;7.23;2.40;;;11.30;99.90;;;;;;5448315;26;20014;-77
2024/04/10 08:43:20;;;;;;;11.77;2.90;;;11.40;99.90;;;;;;5451173;26;20002;-79
2024/04/10 08:45:50;;;;;;;9.77;2.97;;;11.60;99.90;;;;;;5449862;26;19999;-81
2024/04/10 08:48:17;;;;;;;9.80;2.90;;;12.00;99.90;;;;;;5449666;26;19994;-74
2024/04/10 08:50:43;;;;;;;8.82;3.20;;;11.90;99.90;;;;;;5450966;26;19995;-76
2024/04/10 08:53:11;;;;;;;;;;;11.80;99.90;;;;;;5452059;26;20001;-79
2024/04/10 08:55:38;;;;;;;10.52;3.13;;;12.00;99.90;;;;;;5419478;26;19924;-79
2024/04/10 08:58:04;;;;;;;10.48;2.83;;;11.90;99.90;;;;;;5448970;26;20464;-74
2024/04/10 09:00:30;;;;;;;6.50;2.50;;;12.10;99.90;;;;;;5450597;26;20059;-74
2024/04/10 09:02:58;;;;;;;10.73;2.63;;;12.10;99.90;;;;;;5450675;26;20142;-75
2024/04/10 09:05:29;;;;;;;13.60;3.08;;;12.20;99.90;;;;;;5449587;26;19990;-77
2024/04/10 09:08:02;;;;;;;10.30;3.08;;;12.10;99.90;;;;;;5448655;26;19998;-79
2024/04/10 09:10:28;;;;;;;12.73;3.70;;;12.40;99.90;;;;;;5449067;26;20305;-78
2024/04/10 09:13:03;;;;;;;8.38;2.85;;;12.20;99.90;;;;;;5449941;26;20067;-74
2024/04/10 09:15:29;;;;;;;8.00;2.83;;;12.40;99.90;;;;;;5448961;26;20404;-78
2024/04/10 09:17:55;;;;;;;9.32;2.67;;;12.40;99.90;;;;;;5447165;26;20067;-80
2024/04/10 09:20:22;;;;;;;8.63;2.25;;;12.30;99.90;;;;;;5418490;26;20006;-74
2024/04/10 09:23:05;;;;;;;10.40;2.55;;;12.60;99.90;;;;;;5450673;26;20067;-78
2024/04/10 09:25:32;;;;;;;9.00;2.25;;;12.60;99.90;;;;;;5448901;26;20411;-75
2024/04/10 09:27:58;;;;;;;;;;;12.60;99.90;;;;;;5448428;26;20080;-74
2024/04/10 09:30:24;;;;;;;7.15;2.38;;;12.90;99.90;;;;;;5450407;26;19931;-77
2024/04/10 09:32:51;;;;;;;8.77;2.20;;;12.70;99.90;;;;;;5449270;26;19995;-74
2024/04/10 09:35:17;;;;;;;;;;;13.60;99.90;;;;;;5451268;26;20447;-76
2024/04/10 09:37:42;;;;;;;7.40;1.80;;;12.70;99.90;;;;;;5446627;26;19924;-77
2024/04/10 09:40:09;;;;;;;9.48;1.95;;;12.90;99.90;;;;;;5449482;26;20058;-74
2024/04/10 09:42:43;;;;;;;6.47;1.98;;;12.80;99.90;;;;;;5447508;26;20005;-78
2024/04/10 09:45:15;;;;;;;10.20;2.40;;;13.00;99.90;;;;;;5448195;26;19995;-76
2024/04/10 09:47:43;;;;;;;8.70;1.98;;;13.10;99.90;;;;;;5449067;26;19991;-77
2024/04/10 09:50:16;;;;;;;6.85;2.10;;;13.20;99.90;;;;;;5450146;26;20003;-79
2024/04/10 09:52:45;;;;;;;7.80;1.90;;;13.10;99.90;;;;;;5449933;26;20065;-75
2024/04/10 09:55:13;;;;;;;8.98;2.03;;;13.10;99.90;;;;;;5449224;26;20328;-76
2024/04/10 09:57:45;;;;;;;9.93;1.85;;;13.10;99.90;;;;;;5447329;26;19998;-78
2024/04/10 10:00:12;;;;;;;5.80;1.65;;;12.90;99.90;;;;;;5448566;26;20432;-77
2024/04/10 10:02:41;;;;;;;6.95;1.65;;;13.50;99.90;;;;;;5447830;26;20002;-75
2024/04/10 10:05:19;;;;;;;7.55;1.75;;;12.70;99.90;;;;;;5448878;26;19998;-79
2024/04/10 10:07:46;;;;;;;7.60;1.83;;;12.40;99.90;;;;;;5445468;26;20014;-76
2024/04/10 10:10:12;;;;;;;6.80;1.63;;;12.70;99.90;;;;;;5447114;26;20014;-79
2024/04/10 10:12:38;;;;;;;8.82;2.03;;;12.90;99.90;;;;;;5447104;26;19995;-78
2024/04/10 10:15:11;;;;;;;7.20;1.77;;;12.90;99.90;;;;;;5446249;26;20010;-78
2024/04/10 10:17:38;;;;;;;8.27;1.77;;;13.10;99.90;;;;;;5446126;26;19991;-76
2024/04/10 10:20:04;;;;;;;;;;;13.00;99.90;;;;;;5448926;26;20002;-77
2024/04/10 10:22:30;;;;;;;9.30;1.65;;;13.20;99.90;;;;;;5449442;26;19952;-76
2024/04/10 10:24:59;;;;;;;6.20;1.60;;;13.40;99.90;;;;;;5449043;26;20010;-84
2024/04/10 10:27:27;;;;;;;5.00;1.60;;;13.40;99.90;;;;;;5449948;26;19991;-77
2024/04/10 10:30:03;;;;;;;3.40;1.52;;;14.10;99.90;;;;;;5452022;26;20010;-79
2024/04/10 10:32:29;;;;;;;4.65;1.80;;;13.80;99.90;;;;;;5451954;26;19987;-78
2024/04/10 10:35:05;;;;;;;4.30;1.75;;;13.70;99.90;;;;;;5450774;26;20286;-78
2024/04/10 10:37:31;;;;;;;4.15;1.40;;;13.80;99.90;;;;;;5492781;26;19993;-76
2024/04/10 10:39:57;;;;;;;8.73;1.60;;;13.80;99.70;;;;;;5493223;26;20016;-79
2024/04/10 10:42:23;;;;;;;6.67;1.60;;;13.90;99.90;;;;;;5494100;26;20334;-78
2024/04/10 10:44:50;;;;;;;8.27;2.30;;;13.90;99.90;;;;;;5493325;26;20008;-76
2024/04/10 10:47:16;;;;;;;9.45;1.52;;;14.00;99.90;;;;;;5526583;26;19997;-74
2024/04/10 10:49:42;;;;;;;6.37;1.73;;;13.90;99.90;;;;;;5493662;26;19997;-81
2024/04/10 10:52:09;;;;;;;7.37;1.20;;;14.00;99.90;;;;;;5526517;26;20062;-77
2024/04/10 10:54:35;;;;;;;5.63;1.95;;;14.10;99.90;;;;;;5494173;26;20328;-77
2024/04/10 10:57:04;;;;;;;6.70;1.60;;;14.20;99.40;;;;;;5525499;26;20005;-79
2024/04/10 10:59:30;;;;;;;4.00;1.23;;;14.40;98.60;;;;;;5525799;26;20061;-76
2024/04/10 11:01:56;;;;;;;5.15;1.23;;;14.50;99.00;;;;;;5524898;26;20009;-79
2024/04/10 11:04:22;;;;;;;6.77;1.50;;;14.50;97.40;;;;;;5526613;26;20004;-78
2024/04/10 11:06:48;;;;;;;6.80;1.60;;;14.70;96.80;;;;;;5493490;26;19993;-78
2024/04/10 11:09:17;;;;;;;4.95;1.65;;;14.60;99.80;;;;;;5526741;26;20005;-79
2024/04/10 11:11:43;;;;;;;8.05;1.52;;;14.30;95.90;;;;;;5495129;26;20085;-75
2024/04/10 11:14:15;;;;;;;4.30;1.50;;;14.60;96.70;;;;;;5527170;26;20065;-76
2024/04/10 11:16:41;;;;;;;4.75;1.48;;;14.80;96.80;;;;;;5529368;26;20001;-78
2024/04/10 11:19:07;;;;;;;4.45;1.17;;;15.00;97.10;;;;;;5556224;25;20004;-80
2024/04/10 11:21:36;;;;;;;4.60;1.35;;;14.90;96.20;;;;;;5494791;26;20001;-76
2024/04/10 11:24:02;;;;;;;4.22;1.38;;;15.20;98.20;;;;;;5525458;26;20321;-77
2024/04/10 11:26:28;;;;;;;6.00;1.50;;;15.30;92.00;;;;;;5493118;26;20423;-78
2024/04/10 11:28:55;;;;;;;4.77;1.30;;;15.10;92.50;;;;;;5524527;26;19989;-75
2024/04/10 11:31:22;;;;;;;4.25;1.85;;;15.20;93.00;;;;;;5525474;26;20462;-81
2024/04/10 11:33:48;;;;;;;7.63;1.60;;;15.00;94.20;;;;;;5522759;26;20410;-74
2024/04/10 11:36:14;;;;;;;7.32;1.30;;;15.20;99.40;;;;;;5525298;26;19997;-76
2024/04/10 11:38:42;;;;;;;3.40;0.98;;;15.20;97.10;;;;;;5554156;25;20340;-75
2024/04/10 11:41:09;;;;;;;4.22;1.27;;;15.30;96.50;;;;;;5523641;26;20127;-78
2024/04/10 11:43:34;;;;;;;;;;;15.30;96.10;;;;;;5492711;26;20013;-78
2024/04/10 11:46:02;;;;;;;6.78;1.58;;;15.50;95.40;;;;;;5491935;26;19930;-74
2024/04/10 11:48:28;;;;;;;4.38;1.40;;;15.30;93.60;;;;;;5525052;26;20457;-74
2024/04/10 11:50:56;;;;;;;6.93;1.40;;;15.40;93.70;;;;;;5461689;26;20131;-75
2024/04/10 11:53:22;;;;;;;4.40;1.42;;;15.60;94.50;;;;;;5492960;26;20005;-78
2024/04/10 11:55:49;;;;;;;2.80;1.17;;;15.40;95.10;;;;;;5491153;26;20012;-76
2024/04/10 11:58:15;;;;;;;4.72;1.42;;;15.40;95.30;;;;;;5492975;26;20004;-78
2024/04/10 12:00:41;;;;;;;8.13;1.50;;;15.10;94.40;;;;;;5493118;26;19989;-81
2024/04/10 12:03:06;;;;;;;5.13;1.25;;;15.30;93.60;;;;;;5523617;26;20469;-75
2024/04/10 12:05:36;;;;;;;5.77;1.27;;;15.20;94.00;;;;;;5525105;26;20000;-77
2024/04/10 12:08:02;;;;;;;5.22;1.23;;;15.30;94.90;;;;;;5491374;26;19997;-76
2024/04/10 12:10:31;;;;;;;3.97;1.15;;;15.30;95.40;;;;;;5491794;26;20012;-77
2024/04/10 12:12:57;;;;;;;5.75;1.13;;;15.20;95.20;;;;;;5523279;26;19993;-78
2024/04/10 12:15:23;;;;;;;3.17;1.13;;;15.30;95.70;;;;;;5524288;26;19986;-74
2024/04/10 12:17:50;;;;;;;3.72;0.98;;;15.30;95.10;;;;;;5523351;26;20214;-76
2024/04/10 12:20:17;;;;;;;5.35;1.27;;;15.40;94.50;;;;;;5554642;25;20018;-77
2024/04/10 12:22:42;;;;;;;8.70;1.30;;;15.70;94.40;;;;;;5492105;26;20035;-77
2024/04/10 12:25:09;;;;;;;4.80;1.25;;;15.40;94.10;;;;;;5523573;26;19997;-79
2024/04/10 12:27:35;;;;;;;2.55;1.23;;;15.20;94.50;;;;;;5522540;26;19986;-78
2024/04/10 12:30:01;;;;;;;2.17;1.23;;;15.20;94.80;;;;;;5521998;26;19997;-77
2024/04/10 12:32:26;;;;;;;5.37;1.63;;;15.20;94.20;;;;;;5525094;26;20503;-80
2024/04/10 12:34:58;;;;;;;6.47;1.65;;;15.10;93.80;;;;;;5555134;25;19994;-79
2024/04/10 12:40:09;;;;;;;4.90;1.35;;;15.20;95.00;;;;;;5491351;26;20024;-78
2024/04/10 12:42:35;;;;;;;5.77;1.40;;;15.30;94.80;;;;;;5526638;26;20017;-75
2024/04/10 12:45:00;;;;;;;2.65;1.10;;;15.40;94.10;;;;;;5523054;26;20743;-80
2024/04/10 12:47:27;;;;;;;4.13;1.58;;;15.40;93.50;;;;;;5524419;26;20008;-74
2024/04/10 12:49:52;;;;;;;6.13;1.20;;;15.30;94.20;;;;;;5522251;26;19989;-77
2024/04/10 12:52:19;;;;;;;5.15;1.52;;;15.50;94.20;;;;;;5491507;26;19997;-77